createdAt,value
2023-05-19T00:03:49.343Z,13.87
2023-05-19T00:09:09.697Z,13.81
2023-05-19T00:14:12.374Z,13.74
2023-05-19T00:19:14.458Z,13.75
2023-05-19T00:24:16.503Z,13.46
2023-05-19T00:29:19.557Z,13.49
2023-05-19T00:34:21.569Z,13.46
2023-05-19T00:39:23.610Z,13.30
2023-05-19T00:44:25.645Z,13.35
2023-05-19T00:49:27.846Z,13.37
2023-05-19T00:54:29.869Z,13.11
2023-05-19T00:59:32.250Z,13.29
2023-05-19T01:04:39.691Z,13.21
2023-05-19T01:09:41.756Z,13.18
2023-05-19T01:14:44.056Z,13.08
2023-05-19T01:20:08.413Z,13.03
2023-05-19T01:25:33.912Z,13.01
2023-05-19T01:30:42.041Z,13.00
2023-05-19T01:35:45.224Z,12.86
2023-05-19T01:40:48.788Z,12.86
2023-05-19T01:45:51.222Z,12.77
2023-05-19T01:50:53.308Z,12.79
2023-05-19T01:55:57.026Z,12.82
2023-05-19T02:01:14.192Z,12.63
2023-05-19T02:06:27.487Z,12.68
2023-05-19T02:11:32.331Z,12.73
2023-05-19T02:16:37.553Z,12.58
2023-05-19T02:21:39.665Z,12.48
2023-05-19T02:26:41.627Z,12.33
2023-05-19T02:31:43.867Z,12.18
2023-05-19T02:36:45.964Z,12.05
2023-05-19T02:41:48.032Z,12.10
2023-05-19T02:46:50.275Z,12.09
2023-05-19T02:51:52.508Z,12.08
2023-05-19T02:56:54.706Z,11.84
2023-05-19T03:02:02.065Z,11.95
2023-05-19T03:07:06.420Z,11.89
2023-05-19T03:12:08.752Z,11.78
2023-05-19T03:17:10.923Z,11.62
2023-05-19T03:22:13.319Z,11.47
2023-05-19T03:27:15.352Z,11.34
2023-05-19T03:32:17.637Z,11.26
2023-05-19T03:37:21.112Z,11.41
2023-05-19T03:42:23.445Z,11.37
2023-05-19T03:47:26.188Z,11.24
2023-05-19T03:52:38.783Z,11.17
2023-05-19T03:58:04.239Z,11.02
2023-05-19T04:03:06.403Z,11.08
2023-05-19T04:08:09.007Z,10.99
2023-05-19T04:13:11.823Z,10.84
2023-05-19T04:18:13.941Z,10.67
2023-05-19T04:23:15.954Z,10.68
2023-05-19T04:28:18.671Z,10.70
2023-05-19T04:33:20.883Z,10.73
2023-05-19T04:38:23.091Z,10.61
2023-05-19T04:43:25.554Z,10.48
2023-05-19T04:48:31.155Z,10.64
2023-05-19T04:53:33.535Z,10.59
2023-05-19T04:58:36.113Z,10.44
2023-05-19T05:03:38.347Z,10.40
2023-05-19T05:08:41.632Z,10.48
2023-05-19T05:13:50.899Z,10.50
2023-05-19T05:18:54.486Z,10.45
2023-05-19T05:23:57.791Z,10.59
2023-05-19T05:29:03.203Z,10.63
2023-05-19T05:34:05.891Z,10.63
2023-05-19T05:39:08.959Z,10.71
2023-05-19T05:44:12.869Z,10.71
2023-05-19T05:49:17.916Z,10.69
2023-05-19T05:54:22.883Z,10.72
2023-05-19T05:59:37.149Z,10.80
2023-05-19T06:04:41.079Z,10.89
2023-05-19T06:09:43.220Z,11.01
2023-05-19T06:14:45.487Z,10.98
2023-05-19T06:20:20.797Z,11.06
2023-05-19T06:25:26.831Z,10.98
2023-05-19T06:30:30.007Z,11.14
2023-05-19T06:35:44.110Z,11.17
2023-05-19T06:40:46.279Z,11.20
2023-05-19T06:46:02.167Z,11.34
2023-05-19T06:51:10.479Z,11.45
2023-05-19T06:56:19.197Z,11.52
2023-05-19T07:01:21.598Z,11.69
2023-05-19T07:06:29.322Z,11.89
2023-05-19T07:11:40.598Z,12.06
2023-05-19T07:16:44.045Z,12.24
2023-05-19T07:21:47.162Z,12.46
2023-05-19T07:26:49.249Z,12.69
2023-05-19T07:31:54.517Z,12.92
2023-05-19T07:36:56.960Z,13.11
2023-05-19T07:41:59.577Z,13.31
2023-05-19T07:47:07.314Z,13.49
2023-05-19T07:52:09.539Z,13.66
2023-05-19T07:57:11.494Z,13.95
2023-05-19T08:02:13.468Z,13.87
2023-05-19T08:07:15.571Z,14.25
2023-05-19T08:12:17.761Z,14.67
2023-05-19T08:17:21.183Z,14.95
2023-05-19T08:22:23.169Z,15.36
2023-05-19T08:27:25.256Z,15.75
2023-05-19T08:32:28.224Z,16.25
2023-05-19T08:37:32.033Z,16.79
2023-05-19T08:42:37.871Z,17.05
2023-05-19T08:47:46.827Z,18.05
2023-05-19T08:53:32.489Z,18.53
2023-05-19T08:58:37.279Z,18.96
2023-05-19T09:03:52.191Z,19.98
2023-05-19T09:08:55.275Z,20.59
2023-05-19T09:13:58.046Z,20.06
2023-05-19T09:19:05.810Z,18.80
2023-05-19T09:24:11.625Z,18.53
2023-05-19T09:29:18.126Z,20.05
2023-05-19T09:34:28.155Z,20.65
2023-05-19T09:39:33.549Z,21.56
2023-05-19T09:44:38.485Z,21.87
2023-05-19T09:49:50.587Z,22.52
2023-05-19T09:54:56.194Z,22.62
2023-05-19T10:00:04.104Z,22.25
2023-05-19T10:05:11.973Z,22.38
2023-05-19T10:10:24.661Z,23.00
2023-05-19T10:15:27.456Z,22.42
2023-05-19T10:20:31.928Z,21.78
2023-05-19T10:25:39.719Z,23.02
2023-05-19T10:30:47.304Z,22.72
2023-05-19T10:36:22.869Z,23.56
2023-05-19T10:41:54.515Z,23.58
2023-05-19T10:47:00.352Z,23.82
2023-05-19T10:52:04.287Z,23.97
2023-05-19T10:57:07.376Z,24.78
2023-05-19T11:02:09.779Z,24.82
2023-05-19T11:07:17.600Z,25.15
2023-05-19T11:12:25.055Z,24.37
2023-05-19T11:17:33.090Z,25.02
2023-05-19T11:22:37.227Z,25.15
2023-05-19T11:27:43.310Z,25.28
2023-05-19T11:32:47.932Z,24.32
2023-05-19T11:37:57.011Z,24.23
2023-05-19T11:43:03.544Z,24.20
2023-05-19T11:48:07.370Z,24.64
2023-05-19T11:53:20.883Z,24.30
2023-05-19T11:58:31.578Z,24.52
2023-05-19T12:03:34.956Z,24.42
2023-05-19T12:08:43.658Z,23.60
2023-05-19T12:13:48.565Z,23.79
2023-05-19T12:24:51.021Z,22.89
2023-05-19T12:29:59.818Z,22.59
2023-05-19T12:35:04.802Z,22.55
2023-05-19T12:40:12.909Z,22.38
2023-05-19T12:45:22.654Z,22.64
2023-05-19T12:50:31.627Z,22.26
2023-05-19T12:55:46.644Z,22.20
2023-05-19T13:00:58.638Z,22.25
2023-05-19T13:06:01.118Z,22.06
2023-05-19T13:11:06.220Z,22.03
2023-05-19T13:16:15.742Z,21.68
2023-05-19T13:21:19.496Z,21.75
2023-05-19T13:26:21.886Z,21.87
2023-05-19T13:31:25.398Z,21.72
2023-05-19T13:36:33.344Z,21.73
2023-05-19T13:41:37.754Z,21.71
2023-05-19T13:46:46.135Z,22.00
2023-05-19T13:51:51.057Z,21.94
2023-05-19T13:56:53.587Z,21.85
2023-05-19T14:01:58.981Z,21.70
2023-05-19T14:07:03.572Z,21.58
2023-05-19T14:12:12.551Z,21.67
2023-05-19T14:17:18.132Z,21.56
2023-05-19T14:27:50.180Z,21.27
2023-05-19T14:32:59.849Z,21.35
2023-05-19T14:38:08.265Z,21.45
2023-05-19T14:43:14.401Z,21.39
2023-05-19T14:48:25.762Z,21.49
2023-05-19T14:53:28.360Z,21.59
2023-05-19T14:58:31.040Z,21.54
2023-05-19T15:03:38.905Z,21.43
2023-05-19T15:08:41.790Z,21.43
2023-05-19T15:13:48.221Z,21.51
2023-05-19T15:18:51.974Z,21.50
2023-05-19T15:23:54.217Z,21.43
2023-05-19T15:28:59.927Z,21.48
2023-05-19T15:34:03.655Z,21.67
2023-05-19T15:39:13.098Z,21.72
2023-05-19T15:44:16.613Z,21.70
2023-05-19T15:49:21.980Z,21.71
2023-05-19T15:54:34.137Z,21.75
2023-05-19T15:59:42.115Z,21.44
2023-05-19T16:04:50.905Z,21.25
2023-05-19T16:09:59.091Z,21.17
2023-05-19T16:15:05.068Z,21.53
2023-05-19T16:20:08.505Z,21.54
2023-05-19T16:25:12.354Z,21.67
2023-05-19T16:30:15.392Z,21.60
2023-05-19T16:35:18.171Z,21.77
2023-05-19T16:40:21.161Z,21.82
2023-05-19T16:45:29.168Z,21.41
2023-05-19T16:50:32.082Z,21.10
2023-05-19T16:55:40.883Z,20.93
2023-05-19T17:00:44.411Z,20.83
2023-05-19T17:05:51.889Z,20.80
2023-05-19T17:10:56.046Z,20.84
2023-05-19T17:15:59.178Z,20.81
2023-05-19T17:21:04.012Z,20.63
2023-05-19T17:26:07.014Z,20.62
2023-05-19T17:31:13.529Z,20.72
2023-05-19T17:36:15.979Z,20.76
2023-05-19T17:41:18.225Z,20.72
2023-05-19T17:46:20.598Z,20.68
2023-05-19T17:51:25.841Z,20.38
2023-05-19T17:56:30.199Z,20.34
2023-05-19T18:01:36.409Z,20.30
2023-05-19T18:06:39.781Z,20.08
2023-05-19T18:11:48.018Z,20.02
2023-05-19T18:16:51.135Z,19.94
2023-05-19T18:21:56.562Z,19.76
2023-05-19T18:27:16.394Z,19.61
2023-05-19T18:32:18.677Z,19.50
2023-05-19T18:37:29.861Z,19.36
2023-05-19T18:42:34.933Z,19.27
2023-05-19T18:47:37.770Z,19.29
2023-05-19T18:52:47.269Z,19.18
2023-05-19T18:57:53.276Z,19.13
2023-05-19T19:03:01.303Z,19.06
2023-05-19T19:08:08.118Z,19.09
2023-05-19T19:13:11.660Z,19.07
2023-05-19T19:18:17.806Z,18.94
2023-05-19T19:23:23.662Z,18.87
2023-05-19T19:28:27.703Z,18.69
2023-05-19T19:33:30.437Z,18.46
2023-05-19T19:38:33.071Z,18.22
2023-05-19T19:43:40.716Z,18.36
2023-05-19T19:48:43.451Z,18.28
2023-05-19T19:53:45.675Z,18.17
2023-05-19T19:58:51.252Z,18.12
2023-05-19T20:03:55.224Z,18.06
2023-05-19T20:09:03.728Z,18.01
2023-05-19T20:14:06.246Z,18.00
2023-05-19T20:19:09.474Z,17.80
2023-05-19T20:24:11.801Z,17.80
2023-05-19T20:29:18.971Z,17.57
2023-05-19T20:34:24.962Z,17.42
2023-05-19T20:39:28.788Z,17.28
2023-05-19T20:44:34.551Z,17.36
2023-05-19T20:49:37.733Z,17.26
2023-05-19T20:54:40.428Z,17.17
2023-05-19T20:59:42.936Z,17.01
2023-05-19T21:04:49.401Z,17.08
2023-05-19T21:09:54.911Z,17.04
2023-05-19T21:14:57.622Z,16.84
2023-05-19T21:20:00.586Z,16.58
2023-05-19T21:25:04.079Z,16.57
2023-05-19T21:30:10.497Z,16.49
2023-05-19T21:35:13.652Z,16.28
2023-05-19T21:40:19.002Z,16.17
2023-05-19T21:45:23.988Z,16.17
2023-05-19T21:50:27.591Z,15.97
2023-05-19T21:55:30.007Z,15.88
2023-05-19T22:00:38.151Z,15.89
2023-05-19T22:05:40.658Z,15.80
2023-05-19T22:10:43.124Z,15.71
2023-05-19T22:15:48.088Z,15.62
2023-05-19T22:20:52.496Z,15.62
2023-05-19T22:25:54.806Z,15.56
2023-05-19T22:30:57.257Z,15.49
2023-05-19T22:35:59.384Z,15.34
2023-05-19T22:41:06.303Z,15.31
2023-05-19T22:46:13.492Z,15.24
2023-05-19T22:51:17.377Z,15.20
2023-05-19T22:56:19.650Z,15.14
2023-05-19T23:01:22.184Z,15.03
2023-05-19T23:06:34.121Z,14.99
2023-05-19T23:11:36.834Z,14.95
2023-05-19T23:16:39.204Z,14.83
2023-05-19T23:21:41.689Z,14.79
2023-05-19T23:26:46.657Z,14.72
2023-05-19T23:31:49.205Z,14.71
2023-05-19T23:36:55.112Z,14.58
2023-05-19T23:41:57.510Z,14.41
2023-05-19T23:46:59.765Z,14.34
2023-05-19T23:52:02.168Z,14.28
2023-05-19T23:57:04.358Z,14.24
